Time;durP1;ratioP1;P1;durP2;ratioP2;P2;SDS_P1;SDS_P2;PMS_P1;PMS_P2;Temp;Humidity;BMP_temperature;BMP_pressure;BME280_temperature;BME280_humidity;BME280_pressure;Samples;Min_cycle;Max_cycle;Signal;HPM_P1;HPM_P2
2023/07/17 00:00:01;;;;;;;7.53;3.30;;;;;;;16.18;87.28;101442.94;5081844;28;20033;-68
2023/07/17 00:02:26;;;;;;;7.57;3.22;;;;;;;16.09;87.69;101444.63;5070205;28;20408;-68
2023/07/17 00:04:51;;;;;;;9.00;3.20;;;;;;;16.07;87.60;101446.63;5068955;28;20079;-68
2023/07/17 00:07:17;;;;;;;6.50;3.20;;;;;;;16.02;88.04;101454.38;5073408;28;20038;-68
2023/07/17 00:09:43;;;;;;;7.00;3.40;;;;;;;16.00;88.05;101442.69;5089413;28;20479;-68
2023/07/17 00:12:09;;;;;;;5.18;2.80;;;;;;;15.95;88.40;101447.69;5090083;28;20055;-67
2023/07/17 00:14:34;;;;;;;5.55;2.90;;;;;;;15.91;87.60;101440.72;5087344;28;20502;-67
2023/07/17 00:17:00;;;;;;;9.18;3.60;;;;;;;15.93;87.30;101444.19;5069625;28;20062;-68
2023/07/17 00:19:25;;;;;;;7.05;3.05;;;;;;;15.88;88.70;101433.59;5070521;28;20044;-68
2023/07/17 00:21:51;;;;;;;7.25;3.15;;;;;;;15.84;88.70;101442.22;5068914;28;20078;-69
2023/07/17 00:24:17;;;;;;;7.18;3.25;;;;;;;15.80;88.50;101442.47;5069664;28;20048;-68
2023/07/17 00:26:42;;;;;;;6.60;3.20;;;;;;;15.80;87.91;101447.97;5089659;28;20040;-67
2023/07/17 00:29:25;;;;;;;7.45;2.97;;;;;;;15.80;88.35;101436.13;5082952;28;20087;-68
2023/07/17 00:31:51;;;;;;;6.88;3.13;;;;;;;15.76;88.97;101448.34;5067797;28;20200;-68
2023/07/17 00:34:21;;;;;;;8.65;3.05;;;;;;;15.73;88.63;101440.41;5068354;28;20400;-69
2023/07/17 00:36:47;;;;;;;4.85;2.90;;;;;;;15.72;88.24;101447.75;5068836;28;20059;-67
2023/07/17 00:39:16;;;;;;;7.72;3.35;;;;;;;15.69;88.94;101447.16;5067465;28;20496;-68
2023/07/17 00:41:41;;;;;;;5.95;3.30;;;;;;;15.69;88.59;101452.63;5067496;28;20341;-67
2023/07/17 00:44:07;;;;;;;5.47;3.05;;;;;;;15.66;88.64;101451.00;5075522;28;20020;-67
2023/07/17 00:46:33;;;;;;;5.50;2.95;;;;;;;15.62;88.34;101454.09;5084116;28;20356;-67
2023/07/17 00:49:00;;;;;;;5.13;2.95;;;;;;;15.60;88.08;101446.00;5076951;28;20071;-68
2023/07/17 00:51:26;;;;;;;5.43;2.90;;;;;;;15.55;88.21;101451.88;5084130;28;20093;-68
2023/07/17 00:53:52;;;;;;;13.10;3.40;;;;;;;15.51;88.76;101457.75;5073367;28;20384;-67
2023/07/17 00:56:18;;;;;;;6.55;3.58;;;;;;;15.49;88.48;101460.63;5067796;28;20418;-68
2023/07/17 00:58:43;;;;;;;7.70;3.05;;;;;;;15.44;88.87;101465.63;5067526;28;20064;-67
2023/07/17 01:01:09;;;;;;;10.20;3.42;;;;;;;15.42;88.21;101464.88;5080147;28;20394;-68
2023/07/17 01:03:35;;;;;;;6.28;3.17;;;;;;;15.36;89.59;101470.88;5087218;28;20077;-68
2023/07/17 01:06:00;;;;;;;6.10;3.42;;;;;;;15.34;89.01;101464.66;5086898;28;20156;-68
2023/07/17 01:08:26;;;;;;;11.45;3.13;;;;;;;15.28;89.56;101463.25;5083171;28;20075;-67
2023/07/17 01:10:53;;;;;;;6.90;2.80;;;;;;;15.25;88.92;101468.16;5067070;28;20384;-68
2023/07/17 01:13:19;;;;;;;8.25;3.45;;;;;;;15.19;89.48;101472.25;5084353;28;20028;-68
2023/07/17 01:15:44;;;;;;;10.35;3.33;;;;;;;15.16;89.81;101467.03;5083749;28;20032;-68
2023/07/17 01:18:09;;;;;;;7.95;3.22;;;;;;;15.11;90.17;101463.81;5087718;28;20154;-68
2023/07/17 01:20:35;;;;;;;7.43;3.65;;;;;;;15.09;90.26;101462.16;5087363;28;20513;-67
2023/07/17 01:23:05;;;;;;;8.07;3.65;;;;;;;15.06;90.36;101471.50;5086784;28;20046;-67
2023/07/17 01:25:30;;;;;;;8.77;3.38;;;;;;;15.09;90.07;101478.63;5088233;28;20050;-68
2023/07/17 01:27:56;;;;;;;6.75;3.17;;;;;;;15.02;90.07;101468.16;5089043;28;20028;-68
2023/07/17 01:30:21;;;;;;;7.70;3.25;;;;;;;15.00;89.98;101480.22;5083817;28;20482;-67
2023/07/17 01:32:47;;;;;;;6.88;3.20;;;;;;;14.98;90.48;101476.75;5088637;28;20020;-68
2023/07/17 01:35:13;;;;;;;7.03;3.35;;;;;;;14.94;90.82;101481.59;5086876;28;20032;-68
2023/07/17 01:37:38;;;;;;;6.43;3.45;;;;;;;14.91;90.61;101487.31;5077399;28;20396;-67
2023/07/17 01:40:08;;;;;;;5.43;3.10;;;;;;;14.89;90.08;101483.84;5066434;28;20059;-67
2023/07/17 01:42:33;;;;;;;9.65;3.75;;;;;;;14.85;91.00;101484.22;5066742;28;20048;-68
2023/07/17 01:44:58;;;;;;;5.07;2.97;;;;;;;14.80;91.02;101479.97;5068671;28;20040;-68
2023/07/17 01:47:27;;;;;;;10.10;3.33;;;;;;;14.80;90.93;101481.84;5066756;28;20056;-68
2023/07/17 01:49:52;;;;;;;8.68;3.70;;;;;;;14.80;90.92;101479.97;5067847;28;20098;-68
2023/07/17 01:52:17;;;;;;;10.45;3.78;;;;;;;14.82;89.77;101476.22;5067465;28;20044;-67
2023/07/17 01:54:43;;;;;;;12.40;3.20;;;;;;;14.77;90.74;101466.50;5067662;28;20033;-68
2023/07/17 01:57:09;;;;;;;6.00;3.28;;;;;;;14.74;90.95;101476.88;5066076;28;20131;-68
2023/07/17 01:59:34;;;;;;;9.10;3.50;;;;;;;14.74;91.20;101480.47;5066076;28;20361;-68
2023/07/17 02:02:00;;;;;;;6.82;3.30;;;;;;;14.68;90.90;101478.19;5073214;28;20079;-68
2023/07/17 02:04:25;;;;;;;8.02;3.83;;;;;;;14.65;91.87;101469.38;5076571;28;20272;-68
2023/07/17 02:06:52;;;;;;;10.30;3.60;;;;;;;14.63;92.25;101469.47;5085304;28;20052;-68
2023/07/17 02:09:17;;;;;;;6.65;3.30;;;;;;;14.63;91.86;101474.97;5083333;28;20618;-67
2023/07/17 02:11:43;;;;;;;10.73;3.42;;;;;;;14.61;91.28;101474.22;5065252;28;20067;-67
2023/07/17 02:14:08;;;;;;;6.97;3.10;;;;;;;14.61;90.94;101476.09;5066135;28;20074;-68
2023/07/17 02:16:34;;;;;;;6.68;3.38;;;;;;;14.58;91.98;101477.19;5050613;28;20032;-68
2023/07/17 02:18:59;;;;;;;6.18;2.88;;;;;;;14.55;91.13;101480.19;5071809;28;20047;-68
2023/07/17 02:21:26;;;;;;;6.60;3.22;;;;;;;14.52;91.65;101486.78;5086302;28;20028;-68
2023/07/17 02:23:52;;;;;;;9.60;3.42;;;;;;;14.49;92.03;101486.13;5069321;28;20063;-68
2023/07/17 02:26:17;;;;;;;8.85;3.65;;;;;;;14.47;92.21;101493.56;5085870;28;20439;-67
2023/07/17 02:28:42;;;;;;;8.32;3.67;;;;;;;14.45;92.15;101481.84;5084033;28;20032;-67
2023/07/17 02:31:08;;;;;;;6.97;3.10;;;;;;;14.46;92.06;101487.22;5082098;28;20043;-68
2023/07/17 02:33:33;;;;;;;8.40;3.63;;;;;;;14.42;92.65;101484.84;5086152;28;20040;-68
2023/07/17 02:35:59;;;;;;;8.65;3.35;;;;;;;14.40;92.66;101492.28;5087018;28;20107;-68
2023/07/17 02:38:24;;;;;;;8.50;3.85;;;;;;;14.37;92.67;101492.56;5084256;28;20027;-68
2023/07/17 02:40:50;;;;;;;6.55;3.80;;;;;;;14.36;93.19;101488.06;5085118;28;20221;-68
2023/07/17 02:43:15;;;;;;;9.25;3.78;;;;;;;14.29;93.42;101483.06;5087108;28;20044;-68
2023/07/17 02:45:44;;;;;;;9.90;3.65;;;;;;;14.25;93.22;101489.75;5082100;28;20502;-68
2023/07/17 02:48:09;;;;;;;11.73;3.90;;;;;;;14.20;93.54;101491.13;5079210;28;20111;-68
2023/07/17 02:50:35;;;;;;;9.48;3.28;;;;;;;14.16;93.79;101497.81;5065509;28;20043;-68
2023/07/17 02:53:00;;;;;;;10.85;3.75;;;;;;;14.15;93.92;101499.69;5086781;28;20030;-68
2023/07/17 02:55:25;;;;;;;7.78;3.60;;;;;;;14.13;93.64;101498.03;5087183;28;20077;-68
2023/07/17 02:57:51;;;;;;;11.63;4.43;;;;;;;14.11;94.07;101500.91;5082798;28;20024;-68
2023/07/17 03:00:17;;;;;;;9.18;3.55;;;;;;;14.09;94.09;101505.63;5066489;28;20040;-68
2023/07/17 03:02:43;;;;;;;7.97;3.78;;;;;;;14.07;94.42;101509.47;5065506;28;20093;-68
2023/07/17 03:05:10;;;;;;;7.68;3.00;;;;;;;14.04;93.73;101508.72;5066810;28;20036;-68
2023/07/17 03:07:38;;;;;;;8.70;3.47;;;;;;;14.04;93.89;101518.81;5084784;28;20027;-68
2023/07/17 03:10:05;;;;;;;7.43;3.38;;;;;;;14.00;94.06;101512.69;5082658;28;20028;-68
2023/07/17 03:12:30;;;;;;;8.80;3.42;;;;;;;14.01;93.38;101519.03;5065457;28;20119;-67
2023/07/17 03:14:57;;;;;;;7.72;3.67;;;;;;;13.98;93.95;101519.25;5064496;28;20501;-68
2023/07/17 03:17:22;;;;;;;9.02;3.20;;;;;;;13.97;94.35;101522.97;5084965;28;20043;-68
2023/07/17 03:19:48;;;;;;;7.47;3.25;;;;;;;13.93;94.33;101530.53;5073864;28;20016;-68
2023/07/17 03:22:13;;;;;;;7.30;3.38;;;;;;;13.91;94.00;101515.25;5064430;28;20465;-68
2023/07/17 03:24:39;;;;;;;10.07;3.40;;;;;;;13.87;94.83;101514.59;5063859;28;20059;-68
2023/07/17 03:27:04;;;;;;;8.93;3.53;;;;;;;13.87;94.96;101521.94;5086100;28;20046;-68
2023/07/17 03:29:30;;;;;;;12.35;3.78;;;;;;;13.87;95.25;101524.66;5083723;28;20483;-68
2023/07/17 03:31:55;;;;;;;7.28;3.00;;;;;;;13.83;95.19;101520.41;5085808;28;20270;-68
2023/07/17 03:34:21;;;;;;;10.00;3.50;;;;;;;13.81;94.22;101523.28;5085480;28;20031;-68
2023/07/17 03:36:47;;;;;;;6.30;3.78;;;;;;;13.83;95.49;101523.16;5084517;28;20028;-68
2023/07/17 03:39:13;;;;;;;8.95;3.13;;;;;;;13.79;94.65;101527.97;5084586;28;20060;-69
2023/07/17 03:41:38;;;;;;;9.07;3.38;;;;;;;13.78;95.30;101526.22;5082722;28;20036;-68
2023/07/17 03:44:05;;;;;;;11.82;3.30;;;;;;;13.77;94.64;101525.38;5085027;28;20032;-68
2023/07/17 03:46:33;;;;;;;6.35;3.38;;;;;;;13.75;95.11;101520.97;5068066;28;20043;-68
2023/07/17 03:48:58;;;;;;;10.43;3.67;;;;;;;13.72;95.00;101521.22;5064896;28;20029;-68
2023/07/17 03:51:24;;;;;;;8.48;3.60;;;;;;;13.72;95.22;101529.44;5065237;28;20141;-68
2023/07/17 03:53:51;;;;;;;13.23;3.20;;;;;;;13.70;94.86;101525.94;5047431;28;20032;-68
2023/07/17 03:56:16;;;;;;;8.18;2.88;;;;;;;13.69;95.27;101527.78;5073925;28;20353;-67
2023/07/17 03:58:42;;;;;;;8.80;3.45;;;;;;;13.71;94.84;101536.78;5085035;28;20028;-68
2023/07/17 04:01:08;;;;;;;8.38;3.63;;;;;;;13.70;95.05;101535.00;5080841;28;20032;-68
2023/07/17 04:03:41;;;;;;;12.48;3.55;;;;;;;13.67;95.23;101535.25;5085276;28;20044;-68
2023/07/17 04:06:08;;;;;;;12.80;4.03;;;;;;;13.67;95.52;101546.19;5082615;28;20042;-67
2023/07/17 04:08:34;;;;;;;6.43;3.33;;;;;;;13.67;95.34;101537.13;5084530;28;20479;-68
2023/07/17 04:10:59;;;;;;;10.25;3.45;;;;;;;13.64;95.16;101534.59;5085601;28;20040;-68
2023/07/17 04:13:24;;;;;;;8.10;3.80;;;;;;;13.65;94.62;101545.41;5074776;28;20368;-67
2023/07/17 04:15:50;;;;;;;9.88;3.75;;;;;;;13.67;94.27;101540.72;5063705;28;20094;-68
2023/07/17 04:18:16;;;;;;;9.18;3.78;;;;;;;13.66;94.58;101533.50;5084511;28;20818;-67
2023/07/17 04:20:42;;;;;;;9.18;3.33;;;;;;;13.67;94.66;101550.78;5085518;28;20117;-67
2023/07/17 04:23:08;;;;;;;11.40;3.90;;;;;;;13.66;94.86;101544.44;5082063;28;20054;-68
2023/07/17 04:25:39;;;;;;;7.90;3.67;;;;;;;13.68;94.45;101549.78;5084238;28;20036;-67
2023/07/17 04:28:05;;;;;;;8.75;4.03;;;;;;;13.71;94.34;101555.03;5082286;28;20067;-68
2023/07/17 04:30:30;;;;;;;8.15;3.30;;;;;;;13.71;93.84;101561.38;5072566;28;20418;-67
2023/07/17 04:32:56;;;;;;;7.30;3.63;;;;;;;13.71;93.71;101557.78;5090477;28;20072;-68
2023/07/17 04:35:21;;;;;;;9.30;3.60;;;;;;;13.73;93.09;101564.88;5088130;28;20114;-68
2023/07/17 04:37:47;;;;;;;10.90;3.20;;;;;;;13.77;94.33;101568.25;5080026;28;20033;-68
2023/07/17 04:40:12;;;;;;;12.30;3.58;;;;;;;13.77;93.96;101563.66;5067239;28;20442;-68
2023/07/17 04:42:38;;;;;;;12.95;4.45;;;;;;;13.75;94.48;101568.34;5069229;28;20034;-67
2023/07/17 04:45:05;;;;;;;9.45;3.88;;;;;;;13.81;93.67;101572.50;5079757;28;20650;-68
2023/07/17 04:47:32;;;;;;;15.13;4.30;;;;;;;13.84;93.68;101572.25;5067668;28;20032;-68
2023/07/17 04:49:57;;;;;;;8.75;3.63;;;;;;;13.87;92.52;101576.63;5081348;28;20531;-68
2023/07/17 04:52:26;;;;;;;10.82;3.75;;;;;;;13.86;93.50;101578.50;5087791;28;20479;-67
2023/07/17 04:54:51;;;;;;;10.85;3.42;;;;;;;13.87;93.72;101584.84;5086229;28;20098;-68
2023/07/17 04:57:17;;;;;;;8.98;3.60;;;;;;;13.90;93.22;101584.63;5067700;28;20052;-68
2023/07/17 04:59:42;;;;;;;7.35;4.05;;;;;;;13.93;92.70;101585.25;5067606;28;20124;-68
2023/07/17 05:02:08;;;;;;;12.07;4.47;;;;;;;13.94;93.06;101575.19;5067683;28;20059;-68
2023/07/17 05:04:33;;;;;;;12.60;3.75;;;;;;;13.97;92.71;101583.16;5077647;28;20073;-68
2023/07/17 05:06:59;;;;;;;12.80;4.00;;;;;;;14.02;92.40;101586.44;5075364;28;20039;-69
2023/07/17 05:09:25;;;;;;;14.88;4.13;;;;;;;14.04;93.25;101587.19;5087899;28;20020;-68
2023/07/17 05:11:50;;;;;;;10.82;4.25;;;;;;;14.03;92.55;101589.06;5077424;28;20047;-68
2023/07/17 05:14:16;;;;;;;12.68;4.05;;;;;;;14.03;92.77;101586.34;5062228;28;20036;-68
2023/07/17 05:16:42;;;;;;;15.80;5.22;;;;;;;14.04;92.89;101593.53;5061439;28;20028;-68
2023/07/17 05:19:07;;;;;;;17.63;4.97;;;;;;;14.09;93.04;101600.53;5060067;28;20032;-68
2023/07/17 05:21:34;;;;;;;7.13;3.80;;;;;;;14.10;93.59;101594.94;5067075;28;20040;-69
2023/07/17 05:24:00;;;;;;;10.35;4.03;;;;;;;14.15;92.55;101606.41;5066690;28;20071;-68
2023/07/17 05:26:26;;;;;;;12.45;4.18;;;;;;;14.18;92.94;101594.38;5066949;28;20036;-68
2023/07/17 05:28:52;;;;;;;13.65;5.45;;;;;;;14.23;92.41;101603.97;5069297;28;20359;-66
2023/07/17 05:31:17;;;;;;;12.88;5.03;;;;;;;14.26;92.20;101595.50;5066147;28;20035;-68
2023/07/17 05:33:42;;;;;;;11.30;5.03;;;;;;;14.33;92.24;101604.16;5062138;28;20086;-68
2023/07/17 05:36:08;;;;;;;12.50;4.30;;;;;;;14.38;91.67;101615.63;5069784;28;20060;-68
2023/07/17 05:38:33;;;;;;;9.25;4.40;;;;;;;14.41;91.96;101611.75;5086711;28;20364;-68
2023/07/17 05:41:02;;;;;;;11.90;4.45;;;;;;;14.44;92.58;101617.88;5085381;28;20123;-69
2023/07/17 05:43:32;;;;;;;12.63;5.30;;;;;;;14.48;92.49;101616.69;5079571;28;20111;-68
2023/07/17 05:46:07;;;;;;;9.98;5.13;;;;;;;14.52;92.35;101617.34;5076437;28;20082;-68
2023/07/17 05:48:32;;;;;;;12.07;4.88;;;;;;;14.57;92.08;101623.34;5079460;28;20040;-68
2023/07/17 05:50:58;;;;;;;11.10;4.60;;;;;;;14.61;91.17;101618.50;5061443;28;20028;-69
2023/07/17 05:53:24;;;;;;;15.48;4.80;;;;;;;14.65;91.50;101622.75;5046894;28;20029;-68
2023/07/17 05:55:49;;;;;;;14.32;4.85;;;;;;;14.68;91.27;101636.19;5046204;28;20048;-67
2023/07/17 05:58:15;;;;;;;11.88;4.93;;;;;;;14.70;91.51;101629.63;5046475;28;20025;-68
2023/07/17 06:00:41;;;;;;;14.68;5.32;;;;;;;14.75;91.37;101632.00;5058072;28;20081;-68
2023/07/17 06:03:06;;;;;;;11.75;4.93;;;;;;;14.79;91.03;101630.78;5066309;28;20123;-68
2023/07/17 06:05:37;;;;;;;12.27;4.82;;;;;;;14.81;91.24;101639.72;5067434;28;20044;-68
2023/07/17 06:08:03;;;;;;;15.93;4.72;;;;;;;14.85;91.93;101633.03;5076359;28;20042;-68
2023/07/17 06:10:29;;;;;;;14.07;4.57;;;;;;;14.91;90.81;101637.16;5087490;28;20036;-69
2023/07/17 06:12:54;;;;;;;20.10;5.10;;;;;;;14.93;90.20;101633.31;5075362;28;20044;-67
2023/07/17 06:15:20;;;;;;;15.55;4.95;;;;;;;14.95;90.02;101641.41;5066911;28;20074;-68
2023/07/17 06:17:45;;;;;;;12.80;4.68;;;;;;;14.96;90.89;101638.53;5067644;28;20028;-68
2023/07/17 06:20:11;;;;;;;14.43;4.72;;;;;;;15.00;90.18;101644.66;5082539;28;20050;-68
2023/07/17 06:22:36;;;;;;;10.43;5.00;;;;;;;15.04;89.89;101641.53;5087428;28;20020;-68
2023/07/17 06:25:03;;;;;;;13.18;4.95;;;;;;;15.09;90.85;101654.88;5087040;28;20107;-68
2023/07/17 06:27:28;;;;;;;11.25;4.35;;;;;;;15.14;90.57;101649.03;5067914;28;20475;-68
2023/07/17 06:29:54;;;;;;;13.07;4.65;;;;;;;15.19;90.06;101653.16;5071456;28;20028;-68
2023/07/17 06:32:19;;;;;;;16.15;5.43;;;;;;;15.26;88.95;101659.91;5087446;28;20055;-68
2023/07/17 06:34:44;;;;;;;12.55;5.18;;;;;;;15.35;89.33;101669.28;5073928;28;20032;-68
2023/07/17 06:37:10;;;;;;;12.88;4.95;;;;;;;15.37;88.73;101664.53;5066496;28;20039;-67
2023/07/17 06:39:35;;;;;;;13.35;4.53;;;;;;;15.44;88.73;101664.94;5066316;28;20060;-69
2023/07/17 06:42:00;;;;;;;9.18;4.45;;;;;;;15.50;88.51;101665.31;5066471;28;20134;-68
2023/07/17 06:44:26;;;;;;;12.10;4.47;;;;;;;15.63;89.07;101667.94;5065944;28;20468;-68
2023/07/17 06:46:51;;;;;;;16.02;5.40;;;;;;;15.76;86.66;101663.25;5065439;28;20067;-68
2023/07/17 06:49:16;;;;;;;15.70;4.72;;;;;;;15.81;86.57;101668.38;5074401;28;20475;-68
2023/07/17 06:51:42;;;;;;;15.18;5.38;;;;;;;15.89;86.92;101673.22;5073029;28;20123;-68
2023/07/17 06:54:07;;;;;;;13.60;5.15;;;;;;;16.01;86.57;101673.09;5086425;28;20067;-68
2023/07/17 06:56:32;;;;;;;11.13;4.55;;;;;;;16.12;86.11;101685.06;5086863;28;20040;-68
2023/07/17 06:58:58;;;;;;;15.02;4.75;;;;;;;16.13;84.15;101681.31;5087078;28;20032;-69
2023/07/17 07:01:23;;;;;;;13.32;4.15;;;;;;;16.27;84.09;101679.19;5073753;28;20111;-68
2023/07/17 07:03:49;;;;;;;12.93;4.97;;;;;;;16.39;83.80;101687.38;5070220;28;20422;-68
2023/07/17 07:06:14;;;;;;;10.15;4.82;;;;;;;16.55;82.91;101683.22;5086706;28;20028;-67
2023/07/17 07:08:42;;;;;;;17.25;5.30;;;;;;;16.68;81.38;101690.41;5086681;28;20035;-68
2023/07/17 07:11:09;;;;;;;15.93;4.45;;;;;;;16.73;81.32;101694.53;5086121;28;20028;-69
2023/07/17 07:13:34;;;;;;;10.93;4.47;;;;;;;16.90;82.51;101697.75;5068985;28;20038;-69
2023/07/17 07:15:59;;;;;;;15.13;4.95;;;;;;;17.03;81.27;101696.56;5066597;28;20383;-68
2023/07/17 07:18:25;;;;;;;14.20;5.10;;;;;;;17.13;79.44;101706.78;5067368;28;20062;-68
2023/07/17 07:20:51;;;;;;;15.20;4.63;;;;;;;17.28;81.82;101700.81;5086733;28;20032;-68
2023/07/17 07:23:17;;;;;;;12.80;5.97;;;;;;;17.45;81.25;101706.72;5086292;28;20068;-68
2023/07/17 07:25:43;;;;;;;11.80;4.78;;;;;;;17.69;80.62;101707.28;5082612;28;20067;-68
2023/07/17 07:28:10;;;;;;;12.32;5.15;;;;;;;17.81;79.03;101709.00;5084740;28;20046;-68
2023/07/17 07:30:35;;;;;;;8.88;4.55;;;;;;;17.79;76.83;101715.63;5083032;28;20040;-68
2023/07/17 07:33:01;;;;;;;13.63;4.80;;;;;;;17.92;77.14;101716.28;5086854;28;20096;-68
2023/07/17 07:35:26;;;;;;;13.73;4.85;;;;;;;18.06;76.38;101724.19;5068292;28;20040;-68
2023/07/17 07:37:51;;;;;;;11.98;5.03;;;;;;;18.12;75.97;101720.00;5048306;28;20150;-68
2023/07/17 07:40:17;;;;;;;15.75;5.50;;;;;;;18.17;75.18;101719.56;5065628;28;20060;-68
2023/07/17 07:42:43;;;;;;;11.95;4.35;;;;;;;18.30;77.82;101729.34;5066072;28;20132;-69
2023/07/17 07:45:10;;;;;;;7.45;4.32;;;;;;;18.35;75.11;101726.16;5067734;28;20044;-68
2023/07/17 07:47:35;;;;;;;11.75;4.93;;;;;;;18.19;73.87;101729.47;5086539;28;20043;-68
2023/07/17 07:50:01;;;;;;;8.15;3.70;;;;;;;18.14;74.07;101730.84;5075438;28;20123;-68
2023/07/17 07:52:27;;;;;;;12.07;4.65;;;;;;;18.20;74.27;101725.69;5086425;28;20097;-69
2023/07/17 07:54:52;;;;;;;9.13;4.70;;;;;;;18.35;73.40;101731.69;5072564;28;20017;-67
2023/07/17 07:57:17;;;;;;;11.98;4.43;;;;;;;18.35;72.40;101728.91;5065851;28;20040;-68
2023/07/17 07:59:43;;;;;;;10.00;4.50;;;;;;;18.47;72.89;101730.56;5066460;28;20526;-68
2023/07/17 08:02:09;;;;;;;13.30;4.85;;;;;;;18.54;72.74;101728.97;5084006;28;20039;-67
2023/07/17 08:04:35;;;;;;;13.10;4.63;;;;;;;18.61;72.27;101732.06;5076354;28;20887;-68
2023/07/17 08:07:00;;;;;;;15.07;5.43;;;;;;;18.66;71.60;101745.41;5069445;28;20098;-68
2023/07/17 08:09:26;;;;;;;15.98;4.65;;;;;;;18.77;71.39;101740.66;5068612;28;20488;-68
2023/07/17 08:11:52;;;;;;;13.30;4.40;;;;;;;18.82;70.67;101749.38;5069807;28;20026;-67
2023/07/17 08:14:20;;;;;;;11.95;4.53;;;;;;;18.82;72.11;101743.84;5085831;28;20475;-68
2023/07/17 08:16:47;;;;;;;12.55;4.82;;;;;;;19.27;70.39;101742.44;5073322;28;20063;-68
2023/07/17 08:19:12;;;;;;;11.10;5.18;;;;;;;19.48;68.64;101742.25;5068626;28;20375;-68
2023/07/17 08:21:37;;;;;;;9.00;4.85;;;;;;;19.96;69.05;101733.03;5069327;28;20028;-68
2023/07/17 08:24:03;;;;;;;8.82;4.40;;;;;;;20.55;67.18;101731.78;5084083;28;20040;-69
2023/07/17 08:26:28;;;;;;;12.15;4.47;;;;;;;20.81;64.26;101738.31;5088599;28;20096;-68
2023/07/17 08:28:54;;;;;;;12.55;4.85;;;;;;;20.99;61.60;101743.00;5069946;28;20036;-68
2023/07/17 08:31:19;;;;;;;10.38;4.22;;;;;;;21.31;62.10;101742.44;5073938;28;20044;-68
2023/07/17 08:33:45;;;;;;;11.57;4.00;;;;;;;21.29;60.85;101741.72;5064044;28;20036;-69
2023/07/17 08:36:10;;;;;;;9.25;4.22;;;;;;;21.42;61.36;101745.00;5068744;28;20041;-68
2023/07/17 08:38:37;;;;;;;7.93;4.25;;;;;;;21.26;60.30;101750.34;5068874;28;20032;-68
2023/07/17 08:41:02;;;;;;;10.25;4.28;;;;;;;21.64;60.98;101749.16;5068400;28;20119;-67
2023/07/17 08:43:28;;;;;;;10.48;4.57;;;;;;;21.82;62.27;101749.97;5060029;28;20125;-69
2023/07/17 08:45:54;;;;;;;10.02;4.57;;;;;;;22.05;62.25;101747.50;5069998;28;20044;-67
2023/07/17 08:48:19;;;;;;;9.80;3.95;;;;;;;22.53;59.59;101757.16;5063100;28;20040;-68
2023/07/17 08:50:45;;;;;;;10.73;4.32;;;;;;;22.78;59.11;101747.00;5049946;28;20090;-68
2023/07/17 08:53:11;;;;;;;10.90;4.43;;;;;;;22.92;59.57;101756.63;5060710;28;20398;-68
2023/07/17 08:55:37;;;;;;;10.63;3.95;;;;;;;22.90;57.77;101753.16;5068409;28;20041;-68
2023/07/17 08:58:03;;;;;;;9.55;4.18;;;;;;;22.93;58.75;101750.00;5077795;28;20046;-68
2023/07/17 09:00:30;;;;;;;9.82;4.43;;;;;;;22.55;56.81;101754.19;5083407;28;20028;-67
2023/07/17 09:02:56;;;;;;;8.85;3.92;;;;;;;22.41;56.93;101755.69;5067838;28;20094;-68
2023/07/17 09:05:21;;;;;;;12.45;3.97;;;;;;;22.25;57.30;101750.97;5068514;28;20064;-67
2023/07/17 09:07:47;;;;;;;9.38;3.47;;;;;;;22.23;55.01;101749.38;5068393;28;20031;-68
2023/07/17 09:10:23;;;;;;;10.20;3.33;;;;;;;22.02;56.92;101747.84;5075766;28;20032;-68
2023/07/17 09:12:59;;;;;;;7.57;3.38;;;;;;;22.10;58.42;101749.78;5075076;28;20040;-68
2023/07/17 09:15:27;;;;;;;9.73;4.07;;;;;;;22.41;55.61;101744.63;5067158;28;20139;-67
2023/07/17 09:17:53;;;;;;;9.90;3.88;;;;;;;22.32;55.55;101752.03;5072845;28;20054;-67
2023/07/17 09:20:19;;;;;;;11.30;3.92;;;;;;;22.21;54.85;101759.78;5070827;28;20036;-67
2023/07/17 09:22:46;;;;;;;7.85;3.50;;;;;;;21.93;53.40;101751.59;5068024;28;20098;-69
2023/07/17 09:25:13;;;;;;;7.40;2.90;;;;;;;21.94;56.15;101747.78;5067754;28;20037;-68
2023/07/17 09:27:43;;;;;;;8.15;3.10;;;;;;;22.18;57.05;101755.41;5068292;28;20040;-68
2023/07/17 09:30:11;;;;;;;10.98;3.70;;;;;;;22.89;57.05;101759.72;5069682;28;20045;-67
2023/07/17 09:32:36;;;;;;;10.40;3.50;;;;;;;23.34;53.79;101756.50;5088868;28;20372;-68
2023/07/17 09:35:04;;;;;;;7.50;3.55;;;;;;;23.27;52.55;101749.03;5072978;28;20042;-68
2023/07/17 09:37:31;;;;;;;6.40;3.35;;;;;;;23.15;54.27;101754.06;5067640;28;20060;-68
2023/07/17 09:39:58;;;;;;;5.10;2.88;;;;;;;22.93;53.15;101755.56;5068033;28;20056;-68
2023/07/17 09:42:24;;;;;;;10.82;3.40;;;;;;;23.19;55.29;101743.47;5068644;28;20090;-67
2023/07/17 09:44:51;;;;;;;10.20;2.83;;;;;;;23.46;49.99;101748.72;5068217;28;20048;-68
2023/07/17 09:47:18;;;;;;;8.45;3.20;;;;;;;23.39;52.21;101750.44;5086821;28;20525;-67
2023/07/17 09:49:44;;;;;;;6.90;3.05;;;;;;;23.00;50.54;101764.09;5081210;28;20398;-68
2023/07/17 09:52:09;;;;;;;9.60;3.47;;;;;;;22.69;51.77;101752.69;5086291;28;20123;-68
2023/07/17 09:54:37;;;;;;;8.85;3.40;;;;;;;22.49;53.24;101766.84;5086683;28;20460;-68
2023/07/17 09:57:04;;;;;;;5.75;2.88;;;;;;;22.38;54.38;101764.34;5087850;28;20024;-67
2023/07/17 09:59:35;;;;;;;6.88;3.20;;;;;;;22.43;52.42;101767.50;5068326;28;20040;-68
2023/07/17 10:02:02;;;;;;;7.65;3.40;;;;;;;22.75;53.76;101766.75;5076171;28;20032;-68
2023/07/17 10:04:41;;;;;;;5.53;3.20;;;;;;;23.14;52.46;101761.53;5077658;28;20349;-68
2023/07/17 10:07:07;;;;;;;5.43;2.72;;;;;;;23.61;51.38;101751.66;5067025;28;20048;-68
2023/07/17 10:09:36;;;;;;;10.70;3.03;;;;;;;24.03;49.02;101754.22;5067605;28;20537;-68
2023/07/17 10:12:02;;;;;;;7.72;3.70;;;;;;;24.41;49.53;101755.34;5067046;28;20029;-67
2023/07/17 10:14:28;;;;;;;7.57;2.90;;;;;;;24.58;48.08;101760.88;5067619;28;20080;-68
2023/07/17 10:16:54;;;;;;;7.70;3.13;;;;;;;24.99;48.58;101760.63;5055599;28;20464;-68
2023/07/17 10:19:19;;;;;;;9.55;3.20;;;;;;;25.26;48.44;101756.47;5063837;28;20044;-68
2023/07/17 10:21:53;;;;;;;7.63;3.17;;;;;;;25.48;46.56;101744.47;5066329;28;20028;-67
2023/07/17 10:24:22;;;;;;;7.20;2.88;;;;;;;25.30;44.98;101755.91;5066306;28;20159;-68
2023/07/17 10:26:48;;;;;;;7.95;2.95;;;;;;;25.71;46.19;101761.16;5066872;28;20076;-68
2023/07/17 10:29:14;;;;;;;4.57;2.58;;;;;;;26.11;44.64;101753.44;5067423;28;20072;-68
2023/07/17 10:31:48;;;;;;;5.25;2.90;;;;;;;25.86;46.33;101758.44;5080672;28;20534;-67
2023/07/17 10:34:14;;;;;;;8.85;3.20;;;;;;;25.66;42.00;101758.94;5079846;28;20059;-68
2023/07/17 10:36:42;;;;;;;5.63;2.88;;;;;;;25.59;42.46;101762.66;5065648;28;20039;-68
2023/07/17 10:39:14;;;;;;;6.18;2.92;;;;;;;25.65;46.57;101761.91;5067796;28;20048;-67
2023/07/17 10:41:41;;;;;;;5.22;3.45;;;;;;;26.01;45.91;101762.09;5074157;28;20072;-67
2023/07/17 10:44:09;;;;;;;6.55;3.00;;;;;;;26.06;44.18;101769.91;5067377;28;20448;-68
2023/07/17 10:46:36;;;;;;;7.70;2.80;;;;;;;26.27;43.02;101767.22;5067177;28;20032;-68
2023/07/17 10:49:10;;;;;;;8.75;3.20;;;;;;;26.22;43.76;101772.53;5061557;28;20464;-68
2023/07/17 10:51:37;;;;;;;5.78;3.35;;;;;;;26.05;44.25;101757.00;5067015;28;20494;-69
2023/07/17 10:54:03;;;;;;;5.40;3.15;;;;;;;26.34;43.76;101756.16;5066809;28;20032;-69
2023/07/17 10:56:29;;;;;;;6.82;3.40;;;;;;;26.65;44.17;101758.78;5066580;28;20035;-68
2023/07/17 10:58:55;;;;;;;8.13;3.30;;;;;;;26.67;43.54;101748.25;5064974;28;20040;-67
2023/07/17 11:01:21;;;;;;;5.25;2.97;;;;;;;26.57;40.88;101750.50;5056052;28;20474;-68
2023/07/17 11:03:47;;;;;;;6.38;3.40;;;;;;;26.62;43.64;101759.16;5049745;28;20069;-68
2023/07/17 11:06:16;;;;;;;5.35;2.90;;;;;;;26.90;41.44;101754.56;5052286;28;20051;-68
2023/07/17 11:08:43;;;;;;;12.93;3.42;;;;;;;27.01;41.45;101742.03;5064526;28;20029;-67
2023/07/17 11:11:10;;;;;;;7.10;3.13;;;;;;;27.27;42.15;101751.78;5045445;28;20036;-68
2023/07/17 11:13:35;;;;;;;6.03;3.47;;;;;;;27.19;39.57;101752.78;5046652;28;20057;-67
2023/07/17 11:16:08;;;;;;;6.85;3.17;;;;;;;27.17;40.33;101746.53;5051167;28;20429;-67